Time;durP1;ratioP1;P1;durP2;ratioP2;P2;SDS_P1;SDS_P2;PMS_P1;PMS_P2;Temp;Humidity;BMP_temperature;BMP_pressure;BME280_temperature;BME280_humidity;BME280_pressure;Samples;Min_cycle;Max_cycle;Signal;HPM_P1;HPM_P2
2022/12/05 00:00:47;;;;;;;26.60;8.40;;;;;;;21.05;61.68;99323.47;7308648;19;129611;-36
2022/12/05 00:03:12;;;;;;;43.53;9.45;;;;;;;21.07;61.84;99321.53;7310097;19;129231;-36
2022/12/05 00:05:41;;;;;;;67.22;10.95;;;;;;;21.10;63.01;99316.00;7308639;19;130889;-39
2022/12/05 00:08:06;;;;;;;49.97;9.40;;;;;;;21.11;61.91;99317.66;7307745;19;130063;-36
2022/12/05 00:10:34;;;;;;;52.95;9.68;;;;;;;21.11;62.34;99317.66;7308797;19;129589;-36
2022/12/05 00:12:59;;;;;;;45.55;9.68;;;;;;;21.11;61.77;99322.88;7306996;19;129539;-33
2022/12/05 00:15:25;;;;;;;44.80;9.05;;;;;;;21.13;62.62;99318.34;7308345;19;129484;-35
2022/12/05 00:17:50;;;;;;;39.40;8.87;;;;;;;21.14;61.94;99319.16;7307781;19;131302;-36
2022/12/05 00:20:16;;;;;;;50.03;9.67;;;;;;;21.13;62.24;99320.94;7310395;19;130523;-38
2022/12/05 00:22:41;;;;;;;36.38;7.72;;;;;;;21.20;62.42;99319.41;7308644;19;129253;-36
2022/12/05 00:25:07;;;;;;;47.00;8.95;;;;;;;21.29;62.16;99326.38;7308233;19;130533;-34
2022/12/05 00:27:33;;;;;;;46.97;9.07;;;;;;;21.36;62.47;99322.22;7306768;19;130485;-35
2022/12/05 00:29:58;;;;;;;47.03;9.50;;;;;;;21.28;62.49;99319.50;7310278;19;129785;-36
2022/12/05 00:32:24;;;;;;;48.53;9.15;;;;;;;21.26;62.16;99326.66;7306000;19;129208;-35
2022/12/05 00:34:50;;;;;;;56.80;10.00;;;;;;;21.23;62.82;99326.13;7308162;19;129047;-38
2022/12/05 00:37:15;;;;;;;43.55;8.55;;;;;;;21.25;62.95;99319.81;7307083;19;129462;-37
2022/12/05 00:39:41;;;;;;;43.70;8.82;;;;;;;21.26;62.77;99324.06;7308024;19;130014;-35
2022/12/05 00:42:06;;;;;;;39.00;8.57;;;;;;;21.25;62.35;99324.19;7313483;19;129437;-35
2022/12/05 00:44:31;;;;;;;49.38;8.98;;;;;;;21.19;62.25;99316.94;7309139;19;130626;-38
2022/12/05 00:46:57;;;;;;;36.60;8.10;;;;;;;21.28;62.35;99326.53;7307941;19;130146;-39
2022/12/05 00:49:22;;;;;;;37.78;8.27;;;;;;;21.24;62.85;99323.38;7307311;19;130888;-36
2022/12/05 00:51:47;;;;;;;38.40;7.80;;;;;;;21.22;62.09;99325.28;7306393;19;129914;-38
2022/12/05 00:54:15;;;;;;;40.45;8.10;;;;;;;21.19;62.17;99336.06;7307351;19;130902;-34
2022/12/05 00:56:41;;;;;;;40.88;8.40;;;;;;;21.19;61.78;99325.59;7306534;19;130474;-35
2022/12/05 00:59:07;;;;;;;37.47;7.83;;;;;;;21.18;61.99;99328.34;7304651;19;130809;-37
2022/12/05 01:01:34;;;;;;;38.47;7.93;;;;;;;21.19;63.16;99325.59;7306944;19;130726;-37
2022/12/05 01:04:03;;;;;;;50.65;8.88;;;;;;;21.16;63.37;99315.44;7307561;19;129993;-36
2022/12/05 01:06:29;;;;;;;45.67;8.63;;;;;;;21.20;62.43;99329.88;7308201;19;129784;-37
2022/12/05 01:08:56;;;;;;;38.60;8.30;;;;;;;21.19;62.53;99330.81;7305110;19;130700;-35
2022/12/05 01:11:23;;;;;;;55.10;9.57;;;;;;;21.08;63.30;99311.88;7306503;19;129302;-37
2022/12/05 01:13:49;;;;;;;55.65;9.30;;;;;;;21.16;62.37;99328.50;7306152;19;131159;-37
2022/12/05 01:16:21;;;;;;;70.10;10.13;;;;;;;21.16;63.24;99328.50;7305200;19;129864;-39
2022/12/05 01:18:46;;;;;;;33.13;7.05;;;;;;;21.17;62.93;99331.94;7309074;19;129915;-37
2022/12/05 01:21:12;;;;;;;24.63;6.90;;;;;;;21.04;62.46;99305.31;7306409;19;129067;-38
2022/12/05 01:23:38;;;;;;;54.60;8.90;;;;;;;21.14;62.05;99333.03;7306226;19;130114;-36
2022/12/05 01:26:06;;;;;;;60.03;9.73;;;;;;;21.12;62.69;99334.16;7307970;19;129561;-38
2022/12/05 01:28:32;;;;;;;39.78;7.93;;;;;;;21.11;62.39;99333.31;7305160;19;131403;-36
2022/12/05 01:30:57;;;;;;;20.55;6.63;;;;;;;21.05;62.61;99331.28;7308632;19;130954;-37
2022/12/05 01:33:23;;;;;;;53.47;8.65;;;;;;;21.07;62.72;99331.16;7305380;19;129911;-35
2022/12/05 01:35:48;;;;;;;40.38;8.10;;;;;;;21.01;63.29;99327.31;7307012;19;129059;-37
2022/12/05 01:38:13;;;;;;;42.70;8.37;;;;;;;21.14;62.22;99333.03;7304403;19;129854;-39
2022/12/05 01:40:39;;;;;;;38.87;7.90;;;;;;;21.11;62.50;99332.50;7305599;19;129945;-39
2022/12/05 01:43:13;;;;;;;35.85;7.70;;;;;;;21.08;63.92;99338.00;7307567;19;130197;-36
2022/12/05 01:45:41;;;;;;;15.65;6.28;;;;;;;21.10;62.79;99351.78;7313459;19;130978;-34
2022/12/05 01:48:14;;;;;;;37.03;7.78;;;;;;;21.09;64.19;99345.72;7304135;19;129653;-38
2022/12/05 01:50:40;;;;;;;38.80;8.00;;;;;;;21.15;63.60;99329.47;7306070;19;129375;-38
2022/12/05 01:53:05;;;;;;;35.75;7.40;;;;;;;20.97;62.21;99315.50;7304088;19;130888;-35
2022/12/05 01:55:32;;;;;;;47.22;7.95;;;;;;;21.09;62.20;99331.84;7306468;19;130774;-37
2022/12/05 01:57:59;;;;;;;44.15;7.90;;;;;;;21.09;62.88;99340.47;7304127;19;130551;-35
2022/12/05 02:00:24;;;;;;;37.65;7.07;;;;;;;21.11;63.91;99333.31;7308026;19;130061;-38
2022/12/05 02:02:57;;;;;;;47.55;7.85;;;;;;;21.12;64.19;99334.97;7312663;19;130960;-37
2022/12/05 02:05:27;;;;;;;40.17;7.57;;;;;;;21.13;63.45;99331.41;7312525;19;129620;-37
2022/12/05 02:07:53;;;;;;;45.97;8.05;;;;;;;21.13;62.82;99331.41;7310585;19;130348;-36
2022/12/05 02:10:19;;;;;;;44.23;7.77;;;;;;;20.98;63.00;99317.16;7313220;19;130904;-35
2022/12/05 02:12:45;;;;;;;34.70;7.05;;;;;;;21.13;63.05;99336.63;7310143;19;129394;-41
2022/12/05 02:15:39;;;;;;;45.53;7.57;;;;;;;21.13;63.94;99331.41;7312664;19;129280;-35
2022/12/05 02:18:33;;;;;;;57.65;8.55;;;;;;;21.13;64.11;99331.41;7309869;19;129144;-37
2022/12/05 02:21:11;;;;;;;34.22;6.65;;;;;;;21.14;63.67;99337.47;7314768;19;130922;-38
2022/12/05 02:23:49;;;;;;;49.72;8.23;;;;;;;21.12;64.04;99334.16;7313506;19;129753;-36
2022/12/05 02:26:34;;;;;;;76.38;10.02;;;;;;;21.09;62.54;99340.47;7310591;19;129727;-37
2022/12/05 02:29:37;;;;;;;49.72;7.60;;;;;;;21.10;64.14;99344.75;7309809;19;130087;-38
2022/12/05 02:32:36;;;;;;;44.50;6.93;;;;;;;21.03;64.14;99327.16;7312310;19;130896;-38
2022/12/05 02:35:26;;;;;;;40.65;7.30;;;;;;;21.15;64.25;99347.78;7311806;19;131200;-36
2022/12/05 02:38:09;;;;;;;41.20;7.43;;;;;;;21.14;64.66;99340.88;7309598;19;130020;-37
2022/12/05 02:40:40;;;;;;;39.55;7.32;;;;;;;21.12;62.67;99340.19;7311866;19;129584;-38
2022/12/05 02:43:31;;;;;;;50.20;7.68;;;;;;;21.13;64.22;99347.09;7310658;19;129858;-36
2022/12/05 02:46:00;;;;;;;50.50;7.80;;;;;;;21.09;62.99;99340.47;7313562;19;129926;-36
2022/12/05 02:48:28;;;;;;;13.35;5.65;;;;;;;21.11;63.11;99337.72;7316321;19;130135;-36
2022/12/05 02:50:57;;;;;;;53.33;7.82;;;;;;;21.12;64.19;99340.19;7312557;19;130318;-35
2022/12/05 02:53:25;;;;;;;45.90;7.55;;;;;;;21.10;63.33;99342.16;7310989;19;130205;-35
2022/12/05 02:55:51;;;;;;;39.40;6.75;;;;;;;21.04;63.91;99323.59;7312102;19;130310;-36
2022/12/05 02:58:22;;;;;;;42.17;7.07;;;;;;;21.12;63.98;99334.97;7309896;19;130095;-37
2022/12/05 03:00:52;;;;;;;31.23;6.50;;;;;;;21.11;62.87;99333.31;7312413;19;130861;-38
2022/12/05 03:03:21;;;;;;;30.60;6.07;;;;;;;21.12;63.51;99332.34;7311299;19;129376;-36
2022/12/05 03:05:55;;;;;;;38.88;6.65;;;;;;;21.13;64.58;99333.19;7311334;19;130514;-37
2022/12/05 03:08:28;;;;;;;47.28;6.95;;;;;;;21.10;63.75;99334.31;7309737;19;130112;-36
2022/12/05 03:10:55;;;;;;;27.75;5.50;;;;;;;21.13;63.67;99326.19;7312889;19;129213;-36
2022/12/05 03:13:28;;;;;;;35.45;6.68;;;;;;;21.14;64.16;99327.81;7307356;19;130553;-37
2022/12/05 03:16:02;;;;;;;56.17;7.93;;;;;;;21.14;64.03;99333.03;7311704;19;129668;-35
2022/12/05 03:18:38;;;;;;;22.80;6.13;;;;;;;21.09;63.90;99324.81;7311283;19;130317;-38
2022/12/05 03:21:30;;;;;;;62.47;8.50;;;;;;;21.11;63.70;99322.88;7309961;19;130898;-38
2022/12/05 03:24:01;;;;;;;29.92;6.40;;;;;;;21.12;64.15;99324.50;7310739;19;129116;-36
2022/12/05 03:26:49;;;;;;;46.72;7.18;;;;;;;21.12;64.40;99321.91;7310213;19;129971;-37
2022/12/05 03:29:45;;;;;;;43.35;6.47;;;;;;;21.11;64.62;99316.81;7307854;19;130100;-37
2022/12/05 03:32:47;;;;;;;52.95;7.32;;;;;;;20.99;64.29;99316.16;7308998;19;131088;-36
2022/12/05 03:35:21;;;;;;;39.67;6.72;;;;;;;20.93;61.87;99335.00;7310933;19;129099;-38
2022/12/05 03:37:51;;;;;;;47.72;7.20;;;;;;;20.93;62.62;99336.78;7309516;19;130165;-37
2022/12/05 03:40:47;;;;;;;48.45;7.43;;;;;;;21.09;61.42;99319.56;7309439;19;130082;-38
2022/12/05 03:43:34;;;;;;;51.50;7.18;;;;;;;21.41;60.18;99325.22;7309718;19;131240;-38
2022/12/05 03:46:35;;;;;;;57.08;7.97;;;;;;;21.86;59.48;99339.22;7310003;19;129179;-36
2022/12/05 03:49:25;;;;;;;40.55;6.65;;;;;;;22.16;58.46;99347.66;7304063;19;130200;-35
2022/12/05 03:52:11;;;;;;;46.33;7.40;;;;;;;22.33;57.35;99349.47;7306779;19;130180;-36
2022/12/05 03:54:39;;;;;;;38.47;6.22;;;;;;;22.39;57.19;99327.91;7310083;19;130520;-36
2022/12/05 03:57:04;;;;;;;53.22;7.20;;;;;;;22.60;57.26;99339.75;7307634;19;130881;-37
2022/12/05 03:59:39;;;;;;;35.70;6.07;;;;;;;22.66;56.78;99323.41;7309911;19;129236;-37
2022/12/05 04:02:12;;;;;;;43.92;6.90;;;;;;;22.82;56.45;99333.19;7308441;19;131066;-39
2022/12/05 04:04:47;;;;;;;30.30;5.30;;;;;;;22.90;56.14;99338.47;7309483;19;130450;-36
2022/12/05 04:07:14;;;;;;;22.35;5.07;;;;;;;22.96;56.16;99343.94;7307603;19;129142;-35
2022/12/05 04:09:56;;;;;;;44.95;6.47;;;;;;;23.05;56.03;99339.56;7309561;19;130287;-36
2022/12/05 04:12:26;;;;;;;46.53;6.40;;;;;;;23.05;55.83;99339.56;7307480;19;129677;-37
2022/12/05 04:14:58;;;;;;;36.38;5.97;;;;;;;23.11;55.46;99344.16;7309281;19;131573;-35
2022/12/05 04:17:29;;;;;;;21.63;4.57;;;;;;;23.11;55.90;99341.56;7310124;19;130111;-35
2022/12/05 04:22:50;;;;;;;35.97;5.82;;;;;;;22.99;55.81;99322.63;7307113;19;130198;-37
2022/12/05 04:25:32;;;;;;;37.25;5.72;;;;;;;22.99;55.98;99332.31;7308826;19;130773;-35
2022/12/05 04:28:48;;;;;;;45.53;6.30;;;;;;;22.96;56.06;99343.09;7305717;19;130028;-37
2022/12/05 04:31:23;;;;;;;39.55;5.70;;;;;;;22.87;56.20;99338.78;7307943;19;130651;-34
2022/12/05 04:33:56;;;;;;;21.85;4.80;;;;;;;22.76;56.89;99344.25;7310113;19;130023;-36
2022/12/05 04:36:24;;;;;;;46.42;6.18;;;;;;;22.68;57.61;99349.44;7308018;19;130835;-36
2022/12/05 04:38:56;;;;;;;44.45;6.15;;;;;;;22.57;57.45;99347.09;7306503;19;130188;-36
2022/12/05 04:41:46;;;;;;;34.88;5.53;;;;;;;22.36;57.38;99328.22;7308513;19;130298;-36
2022/12/05 04:44:17;;;;;;;34.50;5.85;;;;;;;22.38;58.16;99355.09;7308712;19;130577;-35
2022/12/05 04:46:44;;;;;;;37.53;6.00;;;;;;;22.26;58.15;99349.25;7307670;19;130085;-35
2022/12/05 04:49:26;;;;;;;43.78;6.03;;;;;;;22.18;58.94;99345.72;7306640;19;129432;-36
2022/12/05 04:51:55;;;;;;;37.08;5.43;;;;;;;22.10;58.94;99353.50;7307141;19;130082;-38
2022/12/05 04:54:44;;;;;;;63.67;7.30;;;;;;;22.01;59.10;99350.00;7307231;19;130146;-36
2022/12/05 04:57:23;;;;;;;50.28;6.40;;;;;;;21.92;59.86;99362.16;7306194;19;130975;-37
2022/12/05 04:59:48;;;;;;;43.70;6.35;;;;;;;21.83;59.79;99365.66;7306189;19;130802;-38
2022/12/05 05:02:20;;;;;;;49.58;6.90;;;;;;;21.70;59.62;99369.56;7302988;19;130524;-38
2022/12/05 05:04:51;;;;;;;43.15;6.47;;;;;;;21.64;60.24;99364.91;7301802;19;130504;-38
2022/12/05 05:07:18;;;;;;;36.67;5.18;;;;;;;21.60;60.33;99366.16;7304962;19;129731;-36
2022/12/05 05:09:43;;;;;;;34.00;5.10;;;;;;;21.54;60.40;99372.78;7307193;19;129093;-36
2022/12/05 05:12:10;;;;;;;40.58;6.10;;;;;;;21.42;60.71;99371.31;7307088;19;129990;-39
2022/12/05 05:14:35;;;;;;;51.20;6.27;;;;;;;21.40;60.66;99375.88;7305777;19;130998;-38
2022/12/05 05:17:00;;;;;;;37.13;5.68;;;;;;;21.35;61.46;99378.13;7303871;19;130022;-36
2022/12/05 05:19:26;;;;;;;43.63;5.75;;;;;;;21.19;61.47;99359.56;7308845;19;129150;-36
2022/12/05 05:21:52;;;;;;;53.53;6.75;;;;;;;21.27;61.73;99377.19;7303130;19;130338;-35
2022/12/05 05:24:18;;;;;;;32.78;5.70;;;;;;;21.22;62.07;99374.16;7306990;19;130652;-36
2022/12/05 05:26:44;;;;;;;37.70;5.70;;;;;;;21.09;61.57;99361.41;7302401;19;132086;-36
2022/12/05 05:29:10;;;;;;;;;;;;;;;21.06;61.53;99356.47;7303524;19;129422;-37
2022/12/05 05:31:37;;;;;;;37.30;5.68;;;;;;;21.11;61.58;99375.16;7305191;19;129641;-37
2022/12/05 05:34:03;;;;;;;31.77;5.32;;;;;;;21.08;62.50;99375.44;7304673;19;130394;-38
2022/12/05 05:36:28;;;;;;;42.53;5.83;;;;;;;21.06;62.54;99382.59;7302088;19;129426;-37
2022/12/05 05:38:59;;;;;;;45.15;5.80;;;;;;;21.04;62.62;99376.69;7301297;19;129805;-37
2022/12/05 05:41:33;;;;;;;38.63;5.60;;;;;;;21.02;62.29;99386.47;7305479;19;130661;-36
2022/12/05 05:43:59;;;;;;;32.17;5.10;;;;;;;21.02;62.24;99386.47;7304718;19;129828;-35
2022/12/05 05:46:29;;;;;;;45.95;6.22;;;;;;;21.01;61.91;99379.56;7305936;19;130799;-36
2022/12/05 05:48:55;;;;;;;42.85;5.78;;;;;;;21.04;61.75;99381.91;7304871;19;129450;-36
2022/12/05 05:51:24;;;;;;;36.63;5.22;;;;;;;21.04;62.08;99384.50;7306122;19;129997;-36
2022/12/05 05:53:50;;;;;;;38.20;5.50;;;;;;;21.15;61.61;99387.00;7306772;19;130317;-36
2022/12/05 05:56:18;;;;;;;57.10;6.97;;;;;;;21.27;61.21;99391.06;7303765;19;130124;-38
2022/12/05 05:58:44;;;;;;;58.88;7.20;;;;;;;21.39;60.93;99395.16;7302391;19;129392;-39
2022/12/05 06:01:15;;;;;;;44.93;6.07;;;;;;;21.45;60.59;99389.34;7304003;19;130429;-38
2022/12/05 06:03:41;;;;;;;41.60;6.00;;;;;;;21.51;60.46;99394.03;7306176;19;130226;-38
2022/12/05 06:06:09;;;;;;;70.03;8.10;;;;;;;21.54;60.40;99396.34;7303735;19;130151;-35
2022/12/05 06:08:37;;;;;;;45.20;5.95;;;;;;;21.50;60.28;99392.34;7303621;19;129288;-38
2022/12/05 06:11:15;;;;;;;47.65;6.10;;;;;;;21.49;60.46;99388.09;7305462;19;129954;-38
2022/12/05 06:13:41;;;;;;;31.17;5.22;;;;;;;21.60;59.83;99398.38;7302809;19;129442;-35
2022/12/05 06:16:07;;;;;;;49.40;6.60;;;;;;;21.70;59.40;99399.16;7303421;19;130109;-37
2022/12/05 06:18:33;;;;;;;34.72;4.90;;;;;;;21.75;59.54;99396.94;7303762;19;129290;-36
2022/12/05 06:20:58;;;;;;;29.20;4.82;;;;;;;21.83;59.18;99402.28;7302954;19;131012;-36
2022/12/05 06:23:25;;;;;;;37.08;5.10;;;;;;;21.94;59.41;99409.13;7305567;19;130757;-36
2022/12/05 06:25:52;;;;;;;43.47;5.80;;;;;;;21.98;58.31;99411.28;7304401;19;130333;-38
2022/12/05 06:28:18;;;;;;;38.33;5.68;;;;;;;22.08;58.20;99413.03;7299667;19;130622;-36
2022/12/05 06:30:44;;;;;;;35.33;5.07;;;;;;;22.15;58.66;99420.16;7303921;19;130671;-36
2022/12/05 06:33:10;;;;;;;36.13;5.50;;;;;;;22.23;57.98;99422.06;7300506;19;130696;-37
2022/12/05 06:35:36;;;;;;;43.75;5.63;;;;;;;22.24;58.39;99428.94;7301847;19;130805;-36
2022/12/05 06:38:01;;;;;;;38.70;5.47;;;;;;;22.27;57.48;99433.84;7302196;19;129247;-36
2022/12/05 06:40:27;;;;;;;51.73;6.37;;;;;;;22.32;58.12;99442.09;7303763;19;131112;-38
2022/12/05 06:42:52;;;;;;;31.55;4.82;;;;;;;22.25;57.67;99438.41;7303371;19;132553;-35
2022/12/05 06:45:18;;;;;;;59.90;6.63;;;;;;;22.20;58.67;99448.50;7303478;19;130252;-37
2022/12/05 06:47:43;;;;;;;31.40;4.70;;;;;;;22.11;58.28;99446.78;7307821;19;131438;-38
2022/12/05 06:50:08;;;;;;;92.13;8.90;;;;;;;22.12;58.07;99448.41;7309144;19;130145;-36
2022/12/05 06:52:34;;;;;;;33.90;4.85;;;;;;;22.05;58.10;99452.63;7309816;19;130067;-36
2022/12/05 06:54:59;;;;;;;27.00;5.22;;;;;;;21.98;58.15;99456.78;7307870;19;130940;-39
2022/12/05 06:57:26;;;;;;;43.45;5.50;;;;;;;22.02;58.72;99455.50;7303107;19;130148;-37
2022/12/05 07:01:37;;;;;;;50.05;6.25;;;;;;;21.94;58.96;99459.69;7307687;19;130736;-37
2022/12/05 07:02:37;;;;;;;41.97;5.75;;;;;;;21.88;59.36;99459.44;7309547;19;130237;-37
2022/12/05 07:05:03;;;;;;;41.63;5.72;;;;;;;21.83;58.74;99467.72;7309351;19;130025;-37
2022/12/05 07:07:28;;;;;;;47.92;6.32;;;;;;;21.74;59.43;99455.47;7306539;19;132117;-37
2022/12/05 07:09:53;;;;;;;45.72;5.78;;;;;;;21.81;59.01;99464.44;7310303;19;130078;-39
2022/12/05 07:12:19;;;;;;;44.55;5.80;;;;;;;21.78;59.39;99469.94;7304649;19;130101;-38
2022/12/05 07:14:44;;;;;;;50.63;6.13;;;;;;;21.78;59.20;99471.75;7310095;19;132095;-39
2022/12/05 07:17:10;;;;;;;38.25;5.47;;;;;;;21.73;59.59;99461.66;7308735;19;129384;-36
2022/12/05 07:19:35;;;;;;;34.00;4.53;;;;;;;21.67;60.07;99462.25;7314612;19;129179;-35
2022/12/05 07:22:01;;;;;;;41.45;5.53;;;;;;;21.63;59.38;99460.91;7310841;19;129390;-38
2022/12/05 07:24:26;;;;;;;42.63;5.67;;;;;;;21.63;59.58;99460.91;7309765;19;129930;-38
2022/12/05 07:26:52;;;;;;;38.72;5.25;;;;;;;21.62;60.06;99461.84;7310128;19;129823;-37
2022/12/05 07:29:17;;;;;;;39.72;4.95;;;;;;;21.54;59.61;99466.13;7309740;19;129504;-37
2022/12/05 07:31:43;;;;;;;24.17;4.68;;;;;;;21.51;59.90;99462.03;7310245;19;130853;-36
2022/12/05 07:34:08;;;;;;;37.27;5.67;;;;;;;21.43;59.77;99453.22;7310459;19;130072;-35
2022/12/05 07:36:34;;;;;;;20.40;4.18;;;;;;;21.47;59.73;99450.19;7310023;19;130716;-37
2022/12/05 07:38:59;;;;;;;52.75;6.40;;;;;;;21.45;60.26;99457.34;7305522;19;130314;-36
2022/12/05 07:41:30;;;;;;;56.77;6.40;;;;;;;21.44;60.19;99460.94;7308614;19;131301;-37
2022/12/05 07:43:57;;;;;;;41.72;5.60;;;;;;;21.43;60.53;99463.69;7308795;19;130385;-37
2022/12/05 07:46:23;;;;;;;;;;;;;;;21.43;60.02;99468.94;7309357;19;129862;-35
2022/12/05 07:48:49;;;;;;;34.67;5.32;;;;;;;21.39;60.08;99473.63;7306904;19;130800;-36
2022/12/05 07:51:15;;;;;;;65.47;7.37;;;;;;;21.43;60.09;99480.22;7312457;19;131128;-36
2022/12/05 07:53:42;;;;;;;51.80;6.78;;;;;;;21.42;60.08;99483.78;7307026;19;131669;-35
2022/12/05 07:56:08;;;;;;;66.90;8.30;;;;;;;21.42;59.63;99483.78;7307898;19;129949;-38
2022/12/05 07:58:34;;;;;;;52.28;6.47;;;;;;;21.39;60.07;99484.06;7304037;19;130730;-37
2022/12/05 08:01:14;;;;;;;58.40;7.50;;;;;;;21.36;60.15;99479.13;7306979;19;130913;-38
2022/12/05 08:03:40;;;;;;;43.22;6.13;;;;;;;21.38;60.11;99486.84;7308585;19;130933;-36
2022/12/05 08:06:10;;;;;;;65.25;7.70;;;;;;;21.33;60.35;99494.28;7308035;19;129174;-37
2022/12/05 08:08:35;;;;;;;52.25;7.00;;;;;;;21.31;59.94;99491.81;7305892;19;129360;-36
2022/12/05 08:11:13;;;;;;;43.75;5.95;;;;;;;21.29;60.66;99498.94;7309202;19;130861;-38
2022/12/05 08:13:38;;;;;;;39.53;5.63;;;;;;;21.30;60.34;99502.41;7307856;19;131712;-38
2022/12/05 08:16:08;;;;;;;43.60;5.63;;;;;;;21.31;60.63;99499.66;7307122;19;130410;-38
2022/12/05 08:18:33;;;;;;;31.38;5.05;;;;;;;21.37;60.22;99512.16;7305591;19;129411;-36
2022/12/05 08:21:08;;;;;;;48.13;5.47;;;;;;;21.41;60.66;99502.25;7310529;19;129659;-36
2022/12/05 08:23:35;;;;;;;45.20;5.78;;;;;;;21.45;59.83;99507.03;7308924;19;131686;-38
2022/12/05 08:26:04;;;;;;;;;;;;;;;21.50;59.57;99501.41;7307785;19;129902;-41
2022/12/05 08:28:30;;;;;;;31.70;4.97;;;;;;;21.52;59.67;99510.75;7307989;19;129732;-36
2022/12/05 08:31:01;;;;;;;41.95;5.88;;;;;;;21.53;59.50;99504.56;7309522;19;130828;-37
2022/12/05 08:33:26;;;;;;;49.47;5.97;;;;;;;21.53;60.06;99501.13;7303674;19;131034;-37
2022/12/05 08:35:51;;;;;;;41.17;5.85;;;;;;;21.46;60.21;99506.09;7304666;19;129893;-38
2022/12/05 08:38:17;;;;;;;43.37;5.90;;;;;;;21.50;59.78;99507.44;7306489;19;129176;-38
2022/12/05 08:40:42;;;;;;;39.00;5.25;;;;;;;21.44;59.75;99508.00;7308821;19;130623;-36
2022/12/05 08:43:07;;;;;;;43.53;5.78;;;;;;;21.46;59.83;99511.31;7306762;19;131598;-37
2022/12/05 08:45:33;;;;;;;37.50;5.45;;;;;;;21.43;60.35;99516.00;7304844;19;129233;-38
2022/12/05 08:47:58;;;;;;;48.03;5.93;;;;;;;21.47;60.13;99512.97;7305147;19;130300;-37
2022/12/05 08:50:23;;;;;;;52.22;6.45;;;;;;;21.49;59.95;99515.44;7304618;19;129794;-36
2022/12/05 08:52:49;;;;;;;34.63;4.80;;;;;;;21.49;59.95;99508.41;7307888;19;130062;-35
2022/12/05 08:55:14;;;;;;;25.83;4.37;;;;;;;21.53;60.05;99515.03;7312325;19;129085;-36
2022/12/05 08:57:39;;;;;;;58.53;6.95;;;;;;;21.60;60.11;99516.09;7303161;19;131042;-36
2022/12/05 09:00:05;;;;;;;96.97;9.57;;;;;;;21.61;59.60;99516.94;7303008;19;129577;-37
2022/12/05 09:02:32;;;;;;;53.53;6.27;;;;;;;21.60;59.72;99518.72;7303692;19;131121;-36
2022/12/05 09:04:58;;;;;;;36.47;4.78;;;;;;;21.63;59.20;99517.63;7306408;19;129427;-38
2022/12/05 09:07:23;;;;;;;64.05;7.47;;;;;;;21.62;59.63;99524.63;7305857;19;129335;-35
2022/12/05 09:09:48;;;;;;;42.77;5.67;;;;;;;21.63;59.71;99518.44;7306805;19;130930;-38
2022/12/05 09:12:14;;;;;;;38.60;5.55;;;;;;;21.60;59.38;99523.94;7306722;19;130709;-37
2022/12/05 09:14:39;;;;;;;42.42;5.40;;;;;;;21.61;59.54;99530.00;7307619;19;129735;-38
2022/12/05 09:17:05;;;;;;;32.90;4.93;;;;;;;21.51;59.33;99519.56;7307464;19;129506;-37
2022/12/05 09:19:31;;;;;;;38.85;5.05;;;;;;;21.58;59.37;99528.50;7309323;19;130045;-38
2022/12/05 09:21:57;;;;;;;35.13;5.15;;;;;;;21.60;59.21;99539.63;7307159;19;129785;-36
2022/12/05 09:24:22;;;;;;;46.78;6.03;;;;;;;21.64;59.70;99540.19;7307635;19;130144;-38
2022/12/05 09:26:48;;;;;;;39.67;5.38;;;;;;;21.68;59.56;99552.84;7308142;19;129409;-35
2022/12/05 09:29:13;;;;;;;34.00;5.03;;;;;;;21.71;59.70;99547.34;7303895;19;130371;-37
2022/12/05 09:31:41;;;;;;;29.00;4.60;;;;;;;21.69;59.06;99554.50;7308566;19;129739;-37
2022/12/05 09:34:07;;;;;;;21.58;3.80;;;;;;;21.66;59.93;99539.09;7306431;19;129942;-36
2022/12/05 09:36:33;;;;;;;45.55;5.68;;;;;;;21.75;59.74;99553.13;7307144;19;129158;-36
2022/12/05 09:39:01;;;;;;;43.25;5.47;;;;;;;21.74;59.28;99557.53;7304387;19;130083;-38
2022/12/05 09:44:40;;;;;;;37.95;5.05;;;;;;;21.64;59.45;99554.09;7306731;19;130756;-35
2022/12/05 09:47:27;;;;;;;35.65;5.05;;;;;;;21.54;59.80;99534.97;7302866;19;132033;-36
2022/12/05 09:50:01;;;;;;;30.20;4.90;;;;;;;21.66;60.13;99554.78;7308045;19;129425;-41
2022/12/05 09:52:32;;;;;;;79.00;8.55;;;;;;;21.63;59.50;99549.84;7302556;19;130800;-37
2022/12/05 09:55:09;;;;;;;146.57;14.30;;;;;;;21.57;59.61;99549.56;7282188;19;130659;-41
2022/12/05 09:57:37;;;;;;;;;;;;;;;21.54;60.05;99555.06;7300552;19;130660;-36
2022/12/05 10:00:05;;;;;;;59.33;6.45;;;;;;;21.52;60.55;99557.00;7302859;19;129914;-38
2022/12/05 10:02:46;;;;;;;42.10;5.60;;;;;;;21.47;60.79;99554.81;7304128;19;129883;-37
2022/12/05 10:05:24;;;;;;;33.00;5.15;;;;;;;21.49;60.45;99557.28;7305864;19;129558;-36
2022/12/05 10:08:11;;;;;;;48.97;6.32;;;;;;;21.46;60.28;99558.41;7302379;19;130909;-36
2022/12/05 10:10:52;;;;;;;36.47;5.20;;;;;;;21.47;60.05;99543.53;7305131;19;131047;-34
2022/12/05 10:13:51;;;;;;;60.03;6.30;;;;;;;21.48;60.74;99559.09;7304136;19;130477;-36
2022/12/05 10:16:40;;;;;;;51.67;6.43;;;;;;;21.49;60.37;99558.13;7305319;19;131362;-36
2022/12/05 10:19:14;;;;;;;36.80;5.13;;;;;;;21.51;60.94;99561.44;7305297;19;130352;-38
2022/12/05 10:22:30;;;;;;;22.33;4.05;;;;;;;21.51;60.59;99561.44;7306910;19;130816;-33
2022/12/05 10:25:01;;;;;;;18.88;3.90;;;;;;;21.53;60.25;99562.13;7312048;19;129334;-34
2022/12/05 10:27:34;;;;;;;28.20;4.30;;;;;;;21.55;60.29;99562.78;7313613;19;129289;-36
2022/12/05 10:30:09;;;;;;;36.25;4.85;;;;;;;21.56;60.29;99561.00;7316097;19;129213;-36
2022/12/05 10:32:43;;;;;;;27.77;4.22;;;;;;;21.55;60.41;99562.78;7312881;19;129881;-34
2022/12/05 10:35:18;;;;;;;42.90;5.18;;;;;;;21.50;60.04;99564.97;7312028;19;130958;-38
2022/12/05 10:37:48;;;;;;;50.80;5.88;;;;;;;21.52;60.76;99557.00;7310580;19;129122;-34
2022/12/05 10:40:14;;;;;;;27.95;4.28;;;;;;;21.50;60.24;99554.53;7314405;19;129902;-35
2022/12/05 10:42:39;;;;;;;22.70;4.03;;;;;;;21.47;60.82;99552.19;7318069;19;131355;-34
2022/12/05 10:45:12;;;;;;;25.98;4.00;;;;;;;21.42;60.78;99546.56;7316656;19;129865;-37
2022/12/05 10:47:37;;;;;;;25.52;4.18;;;;;;;21.39;61.19;99553.84;7316075;19;129579;-37
2022/12/05 10:50:31;;;;;;;39.28;5.07;;;;;;;21.30;60.88;99537.22;7311705;19;130536;-38
2022/12/05 10:52:59;;;;;;;40.17;5.07;;;;;;;21.38;61.02;99547.81;7310786;19;130291;-34
2022/12/05 10:55:33;;;;;;;27.77;4.28;;;;;;;21.40;61.01;99537.22;7311984;19;130063;-33
2022/12/05 10:58:22;;;;;;;19.55;3.55;;;;;;;21.26;60.84;99520.16;7315455;19;129110;-35
2022/12/05 11:00:51;;;;;;;38.28;5.28;;;;;;;21.41;61.25;99549.31;7311846;19;130238;-36
2022/12/05 11:03:29;;;;;;;32.10;4.10;;;;;;;21.40;60.69;99551.09;7310932;19;129351;-36
2022/12/05 11:05:58;;;;;;;46.20;5.50;;;;;;;21.43;60.41;99556.06;7311044;19;130408;-36
2022/12/05 11:08:26;;;;;;;73.38;7.45;;;;;;;21.46;60.78;99558.41;7308968;19;131109;-39
2022/12/05 11:11:07;;;;;;;32.28;4.75;;;;;;;21.47;60.83;99554.81;7312345;19;129532;-38
2022/12/05 11:13:34;;;;;;;35.42;4.85;;;;;;;21.52;60.84;99557.00;7311265;19;130647;-37
2022/12/05 11:16:00;;;;;;;39.42;5.03;;;;;;;21.52;60.53;99557.00;7311195;19;129822;-34
2022/12/05 11:18:31;;;;;;;37.00;4.57;;;;;;;21.53;60.53;99545.59;7311278;19;129292;-35
2022/12/05 11:21:12;;;;;;;55.92;5.95;;;;;;;21.52;60.60;99539.53;7311358;19;129606;-35
2022/12/05 11:23:38;;;;;;;35.97;4.88;;;;;;;21.52;60.19;99543.91;7312937;19;131274;-33
2022/12/05 11:26:18;;;;;;;38.80;5.22;;;;;;;21.50;60.94;99545.88;7311940;19;130809;-36
2022/12/05 11:28:44;;;;;;;21.50;3.42;;;;;;;21.31;60.37;99528.41;7311812;19;129338;-33
2022/12/05 11:31:15;;;;;;;31.23;4.38;;;;;;;21.44;61.02;99549.88;7311113;19;130725;-33
2022/12/05 11:33:41;;;;;;;50.25;5.50;;;;;;;21.38;61.25;99545.19;7305520;19;130928;-38
2022/12/05 11:36:22;;;;;;;67.00;7.47;;;;;;;21.37;60.81;99540.91;7309316;19;130445;-38
2022/12/05 11:38:48;;;;;;;32.58;4.50;;;;;;;21.35;60.81;99540.25;7309456;19;129166;-36